Time;durP1;ratioP1;P1;durP2;ratioP2;P2;SDS_P1;SDS_P2;PMS_P1;PMS_P2;Temp;Humidity;BMP_temperature;BMP_pressure;BME280_temperature;BME280_humidity;BME280_pressure;Samples;Min_cycle;Max_cycle;Signal;HPM_P1;HPM_P2
2023/03/17 00:00:20;;;;;;;4.60;2.77;;;9.40;99.90;;;;;;4989897;28;20290;-77
2023/03/17 00:02:49;;;;;;;3.60;2.70;;;9.40;99.90;;;;;;4974936;28;20292;-77
2023/03/17 00:05:18;;;;;;;4.20;2.80;;;9.40;99.90;;;;;;4975158;28;20197;-77
2023/03/17 00:07:46;;;;;;;3.97;2.60;;;9.30;99.90;;;;;;4974439;28;20783;-77
2023/03/17 00:10:20;;;;;;;8.70;3.13;;;9.30;99.90;;;;;;4991948;28;20289;-77
2023/03/17 00:12:47;;;;;;;4.73;2.80;;;9.30;99.90;;;;;;4994485;28;20672;-77
2023/03/17 00:15:16;;;;;;;3.87;2.73;;;9.30;99.90;;;;;;4988175;28;20231;-77
2023/03/17 00:17:44;;;;;;;6.90;2.63;;;9.30;99.90;;;;;;4974906;28;20616;-77
2023/03/17 00:20:16;;;;;;;4.30;2.77;;;9.20;99.90;;;;;;4962069;28;20311;-77
2023/03/17 00:22:44;;;;;;;4.40;2.60;;;9.20;99.90;;;;;;4994188;28;20242;-76
2023/03/17 00:25:24;;;;;;;4.07;2.90;;;9.20;99.90;;;;;;4990823;28;20306;-78
2023/03/17 00:27:51;;;;;;;4.37;2.60;;;9.10;99.90;;;;;;4974127;28;20578;-76
2023/03/17 00:30:20;;;;;;;6.97;3.10;;;9.10;99.90;;;;;;4974729;28;20201;-76
2023/03/17 00:32:47;;;;;;;3.90;2.97;;;9.10;99.90;;;;;;4974465;28;20235;-77
2023/03/17 00:35:20;;;;;;;3.67;2.80;;;9.00;99.90;;;;;;4973980;28;20778;-77
2023/03/17 00:37:48;;;;;;;3.20;2.80;;;9.00;99.90;;;;;;4974719;28;20200;-76
2023/03/17 00:40:17;;;;;;;3.47;3.03;;;9.00;99.90;;;;;;4974580;28;20314;-77
2023/03/17 00:42:46;;;;;;;5.17;3.47;;;8.90;99.90;;;;;;4977044;28;20208;-78
2023/03/17 00:45:14;;;;;;;4.07;2.77;;;9.00;99.90;;;;;;4993947;28;20395;-77
2023/03/17 00:47:41;;;;;;;5.30;2.70;;;9.00;99.90;;;;;;4993798;28;20196;-77
2023/03/17 00:50:13;;;;;;;5.50;2.87;;;9.00;99.90;;;;;;4992520;28;20203;-76
2023/03/17 00:52:41;;;;;;;6.33;2.83;;;9.00;99.90;;;;;;4993275;28;20246;-77
2023/03/17 00:55:09;;;;;;;5.93;2.60;;;8.90;99.90;;;;;;4993525;28;20581;-77
2023/03/17 00:57:36;;;;;;;4.57;3.00;;;8.90;99.90;;;;;;4993566;28;20214;-77
2023/03/17 01:00:06;;;;;;;4.13;2.97;;;9.00;99.90;;;;;;4985043;28;20217;-76
2023/03/17 01:02:33;;;;;;;3.47;2.77;;;9.00;99.90;;;;;;4973552;28;20207;-77
2023/03/17 01:05:00;;;;;;;3.77;2.77;;;9.00;99.90;;;;;;4973944;28;20264;-77
2023/03/17 01:07:29;;;;;;;3.00;2.70;;;9.00;99.90;;;;;;4974714;28;20673;-76
2023/03/17 01:09:56;;;;;;;5.03;2.77;;;9.00;99.90;;;;;;4973284;28;20268;-77
2023/03/17 01:12:23;;;;;;;6.20;2.87;;;9.00;99.90;;;;;;4989893;28;20288;-77
2023/03/17 01:14:50;;;;;;;3.90;2.87;;;8.90;99.90;;;;;;4993333;28;20283;-77
2023/03/17 01:17:18;;;;;;;7.27;2.83;;;9.00;99.90;;;;;;4992582;28;20292;-76
2023/03/17 01:19:46;;;;;;;4.53;3.43;;;8.90;99.90;;;;;;4983254;28;20267;-76
2023/03/17 01:22:14;;;;;;;6.23;3.20;;;8.90;99.90;;;;;;4973856;28;20231;-77
2023/03/17 01:24:41;;;;;;;5.63;3.00;;;8.90;99.90;;;;;;4973101;28;20284;-76
2023/03/17 01:27:08;;;;;;;3.80;3.00;;;8.90;99.90;;;;;;4984695;28;20211;-77
2023/03/17 01:29:35;;;;;;;3.33;2.93;;;8.90;99.90;;;;;;4993142;28;20282;-76
2023/03/17 01:32:02;;;;;;;3.40;2.73;;;8.90;99.90;;;;;;4974969;28;20408;-77
2023/03/17 01:34:30;;;;;;;3.83;2.87;;;8.90;99.90;;;;;;4973650;28;20299;-77
2023/03/17 01:36:57;;;;;;;10.07;4.33;;;8.90;99.90;;;;;;4973618;28;20287;-76
2023/03/17 01:39:26;;;;;;;4.77;2.80;;;8.90;99.90;;;;;;4984447;28;20233;-76
2023/03/17 01:41:56;;;;;;;3.60;2.93;;;8.90;99.90;;;;;;4992710;28;20516;-76
2023/03/17 01:44:24;;;;;;;5.80;3.20;;;8.90;99.90;;;;;;4992363;28;20216;-76
2023/03/17 01:46:51;;;;;;;3.53;2.70;;;8.90;99.90;;;;;;4992268;28;20212;-77
2023/03/17 01:49:29;;;;;;;4.43;2.90;;;8.80;99.90;;;;;;4981032;28;20546;-77
2023/03/17 01:52:04;;;;;;;3.47;2.80;;;8.80;99.90;;;;;;4972629;28;20652;-77
2023/03/17 01:54:36;;;;;;;3.47;3.00;;;8.80;99.90;;;;;;4973864;28;20199;-76
2023/03/17 01:57:10;;;;;;;3.10;2.60;;;8.70;99.90;;;;;;4972777;28;20315;-76
2023/03/17 01:59:42;;;;;;;4.57;2.97;;;8.70;99.90;;;;;;4972374;28;20232;-76
2023/03/17 02:02:14;;;;;;;4.73;3.13;;;8.80;99.90;;;;;;4973285;28;20221;-77
2023/03/17 02:04:42;;;;;;;4.90;3.27;;;8.70;99.90;;;;;;4991939;28;20215;-76
2023/03/17 02:07:11;;;;;;;5.77;3.37;;;8.70;99.90;;;;;;4984212;28;20662;-77
2023/03/17 02:09:38;;;;;;;5.63;3.07;;;8.70;99.90;;;;;;4973164;28;20197;-77
2023/03/17 02:12:08;;;;;;;5.47;3.17;;;8.70;99.90;;;;;;4972956;28;20208;-77
2023/03/17 02:14:35;;;;;;;4.67;2.87;;;8.60;99.90;;;;;;4975843;28;20270;-77
2023/03/17 02:17:02;;;;;;;5.87;2.97;;;8.70;99.90;;;;;;4992089;28;20211;-77
2023/03/17 02:19:29;;;;;;;5.40;3.33;;;8.70;99.90;;;;;;4992215;28;20227;-77
2023/03/17 02:21:59;;;;;;;5.13;3.10;;;8.70;99.90;;;;;;4991315;28;20231;-77
2023/03/17 02:24:31;;;;;;;4.03;2.97;;;8.80;99.90;;;;;;4991481;28;20255;-76
2023/03/17 02:27:04;;;;;;;2.93;2.60;;;8.80;99.90;;;;;;4991049;28;20242;-77
2023/03/17 02:29:33;;;;;;;4.13;2.93;;;8.80;99.90;;;;;;4991479;28;20785;-77
2023/03/17 02:32:00;;;;;;;4.13;2.90;;;8.80;99.90;;;;;;4992176;28;20231;-77
2023/03/17 02:34:27;;;;;;;4.50;2.93;;;8.80;99.90;;;;;;4974184;28;20287;-77
2023/03/17 02:36:54;;;;;;;5.03;2.73;;;8.80;99.90;;;;;;4973156;28;20251;-77
2023/03/17 02:39:23;;;;;;;4.87;2.70;;;8.80;99.90;;;;;;4990587;28;20223;-77
2023/03/17 02:41:50;;;;;;;3.90;3.20;;;8.80;99.90;;;;;;4991727;28;20204;-77
2023/03/17 02:44:17;;;;;;;4.03;3.00;;;8.80;99.90;;;;;;4981371;28;20208;-77
2023/03/17 02:46:45;;;;;;;6.93;2.93;;;8.80;99.90;;;;;;4992384;28;20208;-77
2023/03/17 02:49:12;;;;;;;5.83;3.40;;;8.80;99.90;;;;;;4991058;28;20251;-77
2023/03/17 02:51:39;;;;;;;6.37;3.10;;;8.70;99.90;;;;;;4972990;28;20287;-77
2023/03/17 02:54:06;;;;;;;5.43;3.13;;;8.70;99.90;;;;;;4973001;28;20200;-77
2023/03/17 02:56:35;;;;;;;4.53;3.00;;;8.70;99.90;;;;;;4972441;28;20298;-77
2023/03/17 02:59:02;;;;;;;3.03;2.60;;;8.70;99.90;;;;;;4973086;28;20803;-77
2023/03/17 03:01:29;;;;;;;4.33;2.70;;;8.70;99.90;;;;;;4972467;28;20227;-76
2023/03/17 03:03:57;;;;;;;3.73;2.70;;;8.70;99.90;;;;;;4972028;28;20623;-77
2023/03/17 03:06:24;;;;;;;3.30;2.70;;;8.70;99.90;;;;;;4972723;28;20268;-76
2023/03/17 03:08:51;;;;;;;6.57;2.90;;;8.70;99.90;;;;;;4986721;28;20210;-77
2023/03/17 03:11:19;;;;;;;3.67;3.00;;;8.70;99.90;;;;;;4995238;28;20303;-78
2023/03/17 03:13:47;;;;;;;6.27;2.60;;;8.70;99.90;;;;;;4995596;28;20204;-78
2023/03/17 03:16:14;;;;;;;3.13;2.57;;;8.70;99.90;;;;;;4988877;28;20681;-78
2023/03/17 03:18:41;;;;;;;4.73;3.03;;;8.70;99.90;;;;;;4976230;28;20577;-77
2023/03/17 03:21:09;;;;;;;3.30;2.73;;;8.70;99.90;;;;;;4975619;28;20231;-77
2023/03/17 03:23:36;;;;;;;4.37;3.00;;;8.70;99.90;;;;;;4993646;28;20219;-76
2023/03/17 03:26:03;;;;;;;3.23;2.70;;;8.70;99.90;;;;;;4995281;28;20204;-76
2023/03/17 03:28:30;;;;;;;4.30;2.87;;;8.70;99.90;;;;;;4994825;28;20508;-76
2023/03/17 03:30:59;;;;;;;5.43;3.27;;;8.70;99.90;;;;;;4995027;28;20203;-78
2023/03/17 03:33:26;;;;;;;5.63;2.97;;;8.70;99.90;;;;;;4994968;28;20275;-77
2023/03/17 03:35:53;;;;;;;5.73;3.23;;;8.70;99.90;;;;;;4995214;28;20294;-77
2023/03/17 03:38:20;;;;;;;3.50;2.80;;;8.70;99.90;;;;;;4994387;28;20210;-77
2023/03/17 03:40:47;;;;;;;3.80;2.57;;;8.70;99.90;;;;;;4994619;28;20596;-77
2023/03/17 03:43:15;;;;;;;4.30;2.87;;;8.70;99.90;;;;;;4994801;28;20687;-78
2023/03/17 03:45:42;;;;;;;2.97;2.67;;;8.70;99.90;;;;;;4982218;28;20597;-78
2023/03/17 03:48:11;;;;;;;4.80;3.23;;;8.70;99.90;;;;;;4975191;28;20287;-78
2023/03/17 03:50:38;;;;;;;3.07;2.77;;;8.70;99.90;;;;;;4975212;28;20510;-78
2023/03/17 03:53:06;;;;;;;3.50;2.53;;;8.70;99.90;;;;;;4974566;28;20295;-77
2023/03/17 03:55:33;;;;;;;4.17;2.80;;;8.70;99.90;;;;;;4975799;28;20208;-78
2023/03/17 03:57:59;;;;;;;3.80;2.80;;;8.70;99.90;;;;;;4974568;28;20291;-77
2023/03/17 04:00:26;;;;;;;5.30;2.50;;;8.70;99.90;;;;;;4975652;28;20316;-77
2023/03/17 04:02:53;;;;;;;4.67;3.50;;;8.60;99.90;;;;;;4989385;28;20286;-78
2023/03/17 04:05:21;;;;;;;3.93;2.50;;;8.70;99.90;;;;;;4993638;28;20214;-77
2023/03/17 04:07:48;;;;;;;5.73;2.80;;;8.60;99.90;;;;;;4994275;28;20192;-77
2023/03/17 04:10:16;;;;;;;4.63;2.73;;;8.70;99.90;;;;;;4985120;28;20212;-78
2023/03/17 04:12:44;;;;;;;4.37;2.83;;;8.70;99.90;;;;;;4974607;28;20208;-78
2023/03/17 04:15:15;;;;;;;4.83;2.80;;;8.70;99.90;;;;;;4987219;28;20294;-77
2023/03/17 04:17:42;;;;;;;4.33;2.90;;;8.70;99.90;;;;;;4994790;28;20243;-77
2023/03/17 04:20:10;;;;;;;4.50;3.00;;;8.70;99.90;;;;;;4993311;28;20227;-77
2023/03/17 04:22:39;;;;;;;5.00;3.17;;;8.70;99.90;;;;;;4979267;28;20209;-78
2023/03/17 04:25:07;;;;;;;5.23;2.83;;;8.70;99.90;;;;;;4974796;28;20216;-78
2023/03/17 04:27:34;;;;;;;3.23;2.70;;;8.80;99.90;;;;;;4974119;28;20201;-77
2023/03/17 04:30:02;;;;;;;4.53;2.67;;;8.80;99.90;;;;;;4980314;28;20214;-78
2023/03/17 04:32:29;;;;;;;5.00;2.60;;;8.80;99.90;;;;;;4993712;28;20239;-78
2023/03/17 04:34:56;;;;;;;4.27;3.00;;;8.70;99.90;;;;;;4976848;28;20204;-78
2023/03/17 04:37:23;;;;;;;4.03;2.90;;;8.70;99.90;;;;;;4974476;28;20209;-77
2023/03/17 04:39:53;;;;;;;3.10;2.47;;;8.80;99.90;;;;;;4974975;28;20775;-78
2023/03/17 04:42:20;;;;;;;3.70;2.70;;;8.80;99.90;;;;;;4973742;28;20203;-78
2023/03/17 04:44:47;;;;;;;3.77;2.63;;;8.80;99.90;;;;;;4974279;28;20584;-78
2023/03/17 04:47:15;;;;;;;3.80;3.03;;;8.70;99.90;;;;;;4976604;28;20283;-78
2023/03/17 04:49:42;;;;;;;3.40;2.77;;;8.70;99.90;;;;;;4993580;28;20227;-78
2023/03/17 04:52:09;;;;;;;3.43;2.73;;;8.70;99.90;;;;;;4993366;28;20204;-78
2023/03/17 04:54:36;;;;;;;3.70;2.80;;;8.80;99.90;;;;;;4992985;28;20224;-78
2023/03/17 04:57:05;;;;;;;3.63;3.00;;;8.80;99.90;;;;;;4986044;28;20208;-78
2023/03/17 04:59:32;;;;;;;6.43;3.00;;;8.80;99.90;;;;;;4974077;28;20263;-78
2023/03/17 05:01:59;;;;;;;4.37;3.10;;;8.80;99.90;;;;;;4982226;28;20283;-78
2023/03/17 05:04:26;;;;;;;4.07;3.00;;;8.80;99.90;;;;;;4993594;28;20211;-78
2023/03/17 05:06:53;;;;;;;3.23;2.70;;;8.80;99.90;;;;;;4992865;28;20298;-77
2023/03/17 05:09:20;;;;;;;5.87;2.70;;;8.80;99.90;;;;;;4992603;28;20200;-78
2023/03/17 05:11:47;;;;;;;4.33;2.73;;;8.80;99.90;;;;;;4987906;28;20267;-78
2023/03/17 05:14:15;;;;;;;4.97;3.03;;;8.80;99.90;;;;;;4973901;28;20211;-78
2023/03/17 05:16:42;;;;;;;4.47;2.77;;;8.80;99.90;;;;;;4973634;28;20208;-78
2023/03/17 05:19:09;;;;;;;3.40;2.47;;;8.80;99.90;;;;;;4976567;28;20228;-78
2023/03/17 05:21:36;;;;;;;5.00;2.70;;;8.80;99.90;;;;;;4993620;28;20228;-78
2023/03/17 05:24:03;;;;;;;4.20;2.83;;;8.80;99.90;;;;;;4992543;28;20306;-78
2023/03/17 05:26:29;;;;;;;2.67;2.47;;;8.80;99.90;;;;;;4992653;28;20214;-78
2023/03/17 05:28:56;;;;;;;2.93;2.40;;;8.80;99.90;;;;;;4992913;28;20290;-78
2023/03/17 05:31:25;;;;;;;3.67;3.00;;;8.90;99.90;;;;;;4991353;28;20310;-76
2023/03/17 05:33:52;;;;;;;3.83;2.83;;;8.80;99.90;;;;;;4992129;28;20272;-77
2023/03/17 05:36:20;;;;;;;4.97;2.87;;;8.80;99.90;;;;;;4992923;28;20240;-76
2023/03/17 05:38:46;;;;;;;2.93;2.57;;;8.80;99.90;;;;;;4992128;28;20510;-77
2023/03/17 05:41:14;;;;;;;4.80;3.30;;;8.80;99.90;;;;;;4992771;28;20238;-76
2023/03/17 05:43:41;;;;;;;5.67;3.10;;;8.80;99.90;;;;;;4983700;28;20283;-76
2023/03/17 05:46:09;;;;;;;4.30;2.93;;;8.80;99.90;;;;;;4973735;28;20200;-76
2023/03/17 05:48:37;;;;;;;3.13;2.67;;;8.80;99.90;;;;;;4973916;28;20197;-77
2023/03/17 05:51:05;;;;;;;5.27;2.97;;;8.80;99.90;;;;;;4982231;28;20232;-76
2023/03/17 05:53:32;;;;;;;4.57;3.03;;;8.80;99.90;;;;;;4992951;28;20240;-76
2023/03/17 05:55:59;;;;;;;4.87;2.90;;;8.80;99.90;;;;;;4992701;28;20697;-76
2023/03/17 05:58:25;;;;;;;4.47;3.17;;;8.80;99.90;;;;;;4991167;28;20214;-76
2023/03/17 06:00:53;;;;;;;3.93;2.93;;;8.90;99.90;;;;;;4992733;28;20318;-77
2023/03/17 06:03:21;;;;;;;4.37;3.10;;;8.80;99.90;;;;;;4993024;28;20200;-77
2023/03/17 06:05:49;;;;;;;3.83;3.03;;;8.90;99.90;;;;;;4992522;28;20195;-77
2023/03/17 06:08:16;;;;;;;6.83;2.93;;;8.80;99.90;;;;;;4991806;28;20212;-76
2023/03/17 06:10:43;;;;;;;5.97;3.60;;;8.80;99.90;;;;;;4992708;28;20589;-77
2023/03/17 06:13:11;;;;;;;3.33;2.73;;;8.80;99.90;;;;;;4992388;28;20298;-77
2023/03/17 06:15:40;;;;;;;4.53;3.07;;;8.80;99.90;;;;;;4992213;28;20702;-76
2023/03/17 06:18:07;;;;;;;3.70;2.83;;;8.80;99.90;;;;;;4997065;28;20610;-76
2023/03/17 06:20:35;;;;;;;5.50;3.60;;;8.80;99.90;;;;;;5010956;28;20215;-77
2023/03/17 06:23:05;;;;;;;3.53;2.97;;;8.80;99.90;;;;;;5011770;28;20211;-76
2023/03/17 06:25:33;;;;;;;4.53;3.37;;;8.80;99.90;;;;;;4992392;28;20323;-76
2023/03/17 06:28:01;;;;;;;5.57;3.13;;;8.80;99.90;;;;;;4991550;28;20288;-76
2023/03/17 06:30:28;;;;;;;4.90;3.17;;;8.80;99.90;;;;;;4992195;28;20200;-76
2023/03/17 06:32:55;;;;;;;3.73;2.83;;;8.80;99.90;;;;;;4992140;28;20228;-78
2023/03/17 06:35:22;;;;;;;4.60;3.10;;;8.80;99.90;;;;;;4992333;28;20286;-78
2023/03/17 06:37:49;;;;;;;6.47;3.60;;;8.80;99.90;;;;;;4981372;28;20212;-77
2023/03/17 06:40:17;;;;;;;5.10;3.20;;;8.80;99.90;;;;;;4972270;28;20521;-77
2023/03/17 06:42:44;;;;;;;6.23;3.20;;;8.90;99.90;;;;;;4979195;28;20207;-76
2023/03/17 06:45:12;;;;;;;4.20;2.70;;;8.90;99.90;;;;;;4995181;28;20210;-77
2023/03/17 06:47:38;;;;;;;8.27;3.17;;;8.90;99.90;;;;;;4995600;28;20196;-76
2023/03/17 06:50:08;;;;;;;4.87;3.20;;;8.90;99.90;;;;;;4980907;28;20295;-76
2023/03/17 06:52:35;;;;;;;6.43;3.00;;;8.90;99.90;;;;;;4976618;28;20209;-76
2023/03/17 06:55:03;;;;;;;3.23;2.93;;;8.90;99.90;;;;;;4976563;28;20220;-76
2023/03/17 06:57:31;;;;;;;4.57;3.07;;;8.90;99.90;;;;;;4976650;28;20211;-76
2023/03/17 06:59:58;;;;;;;6.07;3.40;;;9.00;99.90;;;;;;4976493;28;20197;-80
2023/03/17 07:02:25;;;;;;;4.90;2.90;;;9.00;99.90;;;;;;4975814;28;20288;-77
2023/03/17 07:04:52;;;;;;;3.60;3.00;;;9.00;99.90;;;;;;4976662;28;20240;-76
2023/03/17 07:07:19;;;;;;;4.87;3.20;;;9.00;99.90;;;;;;4976431;28;20359;-76
2023/03/17 07:09:46;;;;;;;4.40;3.10;;;9.00;99.90;;;;;;4976180;28;20216;-76
2023/03/17 07:12:13;;;;;;;3.60;3.23;;;9.10;99.90;;;;;;4976399;28;20193;-76
2023/03/17 07:14:42;;;;;;;5.27;3.03;;;9.10;99.90;;;;;;4976512;28;20196;-76
2023/03/17 07:17:13;;;;;;;3.97;3.10;;;9.20;99.90;;;;;;4975476;28;20268;-77
2023/03/17 07:19:40;;;;;;;4.73;3.07;;;9.20;99.90;;;;;;4994487;28;20226;-76
2023/03/17 07:22:07;;;;;;;7.03;3.60;;;9.20;99.90;;;;;;4995052;28;20219;-75
2023/03/17 07:24:35;;;;;;;5.40;3.30;;;9.30;99.90;;;;;;4976534;28;20240;-76
2023/03/17 07:27:01;;;;;;;7.97;3.10;;;9.30;99.90;;;;;;4975738;28;20214;-76
2023/03/17 07:29:31;;;;;;;6.57;3.97;;;9.30;99.90;;;;;;4985771;28;20204;-75
2023/03/17 07:31:59;;;;;;;4.87;3.13;;;9.40;99.90;;;;;;4995285;28;20303;-75
2023/03/17 07:34:27;;;;;;;6.80;3.40;;;9.40;99.90;;;;;;4994777;28;20290;-76
2023/03/17 07:36:54;;;;;;;5.47;3.07;;;9.50;99.90;;;;;;4994466;28;20483;-76
2023/03/17 07:39:21;;;;;;;4.77;3.23;;;9.60;99.90;;;;;;4994337;28;20215;-76
2023/03/17 07:41:51;;;;;;;5.30;3.00;;;9.60;99.90;;;;;;4995151;28;20251;-76
2023/03/17 07:44:18;;;;;;;6.50;2.90;;;9.70;99.90;;;;;;4994316;28;20196;-76
2023/03/17 07:46:45;;;;;;;6.27;3.40;;;9.80;99.90;;;;;;4994633;28;20661;-76
2023/03/17 07:49:14;;;;;;;3.23;2.50;;;9.90;99.90;;;;;;4994638;28;20200;-76
2023/03/17 07:51:42;;;;;;;3.87;3.00;;;9.90;99.90;;;;;;4993798;28;20483;-77
2023/03/17 07:54:09;;;;;;;5.03;3.20;;;10.00;99.90;;;;;;4994542;28;20204;-78
2023/03/17 07:56:36;;;;;;;5.57;3.23;;;10.10;99.90;;;;;;4985451;28;20213;-77
2023/03/17 07:59:03;;;;;;;6.70;2.97;;;10.10;99.90;;;;;;4974382;28;20232;-77
2023/03/17 08:01:31;;;;;;;4.47;3.10;;;10.20;99.90;;;;;;4975220;28;20238;-77
2023/03/17 08:03:57;;;;;;;4.00;2.90;;;10.20;99.90;;;;;;4975564;28;20287;-76
2023/03/17 08:06:26;;;;;;;4.43;3.10;;;10.30;99.90;;;;;;4974286;28;20205;-76
2023/03/17 08:08:53;;;;;;;5.87;3.50;;;10.30;99.90;;;;;;4975489;28;20226;-77
2023/03/17 08:11:22;;;;;;;5.00;3.33;;;10.40;99.90;;;;;;4974149;28;20197;-75
2023/03/17 08:13:49;;;;;;;5.90;3.57;;;10.40;99.90;;;;;;4987633;28;20211;-77
2023/03/17 08:16:16;;;;;;;4.43;3.07;;;10.40;99.90;;;;;;4994342;28;20281;-76
2023/03/17 08:18:43;;;;;;;6.17;3.30;;;10.40;99.90;;;;;;4993608;28;20235;-76
2023/03/17 08:21:10;;;;;;;4.40;3.03;;;10.30;99.90;;;;;;4994641;28;20223;-76
2023/03/17 08:23:38;;;;;;;5.00;3.67;;;10.40;99.90;;;;;;4990006;28;20205;-76
2023/03/17 08:26:05;;;;;;;4.73;3.20;;;10.40;99.90;;;;;;4974047;28;20562;-77
2023/03/17 08:28:33;;;;;;;4.57;3.23;;;10.50;99.90;;;;;;4974983;28;20223;-77
2023/03/17 08:31:12;;;;;;;7.43;3.60;;;10.60;99.90;;;;;;4984726;28;20204;-77
2023/03/17 08:33:39;;;;;;;4.07;3.20;;;10.70;99.90;;;;;;4993316;28;20236;-76
2023/03/17 08:36:08;;;;;;;5.37;3.13;;;10.90;99.90;;;;;;4993774;28;20204;-77
2023/03/17 08:38:36;;;;;;;4.10;3.10;;;11.00;99.90;;;;;;4993762;28;20196;-76
2023/03/17 08:41:06;;;;;;;6.03;3.50;;;11.00;99.90;;;;;;4992052;28;20228;-77
2023/03/17 08:43:34;;;;;;;4.70;3.53;;;11.10;99.90;;;;;;4974714;28;20211;-76
2023/03/17 08:46:03;;;;;;;4.77;3.20;;;11.20;99.90;;;;;;4974980;28;20619;-77
2023/03/17 08:48:31;;;;;;;5.07;3.80;;;11.10;99.90;;;;;;4973795;28;20697;-78
2023/03/17 08:50:58;;;;;;;7.57;3.20;;;11.20;99.90;;;;;;4974821;28;20207;-75
2023/03/17 08:53:26;;;;;;;5.50;3.10;;;11.30;99.90;;;;;;4973551;28;20823;-75
2023/03/17 08:55:55;;;;;;;7.47;4.13;;;11.50;99.90;;;;;;4974683;28;20283;-76
2023/03/17 08:58:24;;;;;;;3.90;3.50;;;11.60;99.90;;;;;;4974263;28;20628;-75
2023/03/17 09:00:52;;;;;;;4.67;3.60;;;11.70;99.90;;;;;;4983836;28;20234;-76
2023/03/17 09:03:20;;;;;;;6.60;3.60;;;11.80;85.30;;;;;;4993678;28;20222;-75
2023/03/17 09:05:48;;;;;;;6.17;3.57;;;11.90;50.50;;;;;;4992257;28;20208;-76
2023/03/17 09:08:15;;;;;;;5.93;3.77;;;12.00;68.30;;;;;;4972609;28;20747;-77
2023/03/17 09:10:42;;;;;;;4.33;3.43;;;12.10;62.20;;;;;;4973834;28;20215;-76
2023/03/17 09:13:10;;;;;;;5.13;3.60;;;12.30;54.60;;;;;;4973879;28;20224;-77
2023/03/17 09:15:38;;;;;;;7.83;4.30;;;12.50;65.50;;;;;;4984055;28;20200;-76
2023/03/17 09:18:06;;;;;;;8.77;3.97;;;12.70;31.70;;;;;;4993621;28;20597;-76
2023/03/17 09:20:33;;;;;;;6.37;4.10;;;12.80;1.90;;;;;;4990807;28;20561;-78
2023/03/17 09:23:00;;;;;;;5.00;4.00;;;13.00;6.40;;;;;;4972940;28;20225;-77
2023/03/17 09:25:27;;;;;;;6.10;3.73;;;13.10;1.00;;;;;;4978518;28;20229;-78
2023/03/17 09:27:55;;;;;;;7.17;3.80;;;13.10;7.20;;;;;;4988616;28;20624;-77
2023/03/17 09:30:22;;;;;;;8.87;3.90;;;13.20;9.90;;;;;;4990529;28;20615;-78
2023/03/17 09:32:50;;;;;;;6.20;4.03;;;13.30;1.00;;;;;;4997693;28;20307;-76
2023/03/17 09:35:17;;;;;;;4.97;3.40;;;13.40;4.30;;;;;;4986700;28;20213;-76
2023/03/17 09:37:44;;;;;;;5.17;3.23;;;13.40;3.80;;;;;;4984952;28;20273;-77
2023/03/17 09:40:17;;;;;;;6.83;4.00;;;13.50;10.80;;;;;;4992132;28;20239;-77
2023/03/17 09:42:54;;;;;;;5.67;4.13;;;13.70;10.20;;;;;;4979970;28;20239;-78
2023/03/17 09:45:31;;;;;;;5.43;4.33;;;13.80;13.30;;;;;;4991930;28;20200;-77
2023/03/17 09:48:29;;;;;;;4.90;4.13;;;14.00;5.50;;;;;;4989037;28;20290;-77
2023/03/17 09:50:59;;;;;;;4.63;3.97;;;14.10;1.00;;;;;;4991440;28;20220;-77
2023/03/17 09:53:32;;;;;;;8.40;4.60;;;14.20;1.00;;;;;;4987953;28;20608;-77
2023/03/17 09:56:05;;;;;;;6.40;4.57;;;14.20;1.00;;;;;;4988850;28;20200;-77
2023/03/17 09:58:34;;;;;;;5.53;4.23;;;14.30;1.00;;;;;;4984595;28;20200;-77
2023/03/17 10:01:04;;;;;;;5.47;4.40;;;14.50;1.00;;;;;;4992172;28;20203;-77
2023/03/17 10:03:32;;;;;;;9.10;5.40;;;14.70;1.00;;;;;;4983393;28;20618;-78
2023/03/17 10:06:13;;;;;;;6.87;4.73;;;14.80;1.00;;;;;;4982340;28;20216;-76
2023/03/17 10:08:48;;;;;;;8.00;5.47;;;14.90;1.00;;;;;;4983385;28;20192;-77
2023/03/17 10:11:25;;;;;;;6.43;4.68;;;15.00;1.00;;;;;;4988970;28;20195;-77
2023/03/17 10:13:57;;;;;;;5.80;4.90;;;15.10;1.00;;;;;;4989063;28;20222;-77
2023/03/17 10:16:32;;;;;;;8.57;4.57;;;15.30;1.00;;;;;;4999918;28;20213;-77
2023/03/17 10:19:06;;;;;;;7.65;4.80;;;15.50;1.00;;;;;;5000223;28;20592;-78
2023/03/17 10:21:37;;;;;;;8.85;4.95;;;15.70;1.00;;;;;;5002685;28;20348;-77
2023/03/17 10:24:05;;;;;;;7.63;4.97;;;15.80;1.00;;;;;;5017931;28;20657;-77
2023/03/17 10:26:38;;;;;;;8.27;5.27;;;15.80;1.00;;;;;;5017298;28;20206;-78
2023/03/17 10:29:11;;;;;;;8.13;5.28;;;15.80;1.00;;;;;;4987529;28;20212;-78
2023/03/17 10:31:39;;;;;;;6.67;4.93;;;15.80;1.00;;;;;;4995484;28;20270;-78
2023/03/17 10:34:15;;;;;;;7.97;5.57;;;15.80;1.00;;;;;;4996984;28;20781;-78
2023/03/17 10:36:44;;;;;;;6.60;5.50;;;15.80;1.00;;;;;;5003676;28;20765;-77
2023/03/17 10:39:14;;;;;;;7.77;6.07;;;15.70;1.00;;;;;;5010368;28;20964;-78
2023/03/17 10:41:47;;;;;;;9.73;5.47;;;15.80;1.00;;;;;;5007934;28;20223;-77
2023/03/17 10:44:27;;;;;;;11.00;5.80;;;15.80;1.00;;;;;;4997696;28;20298;-78
2023/03/17 10:46:56;;;;;;;6.95;5.28;;;15.70;1.00;;;;;;4994377;28;20264;-78
2023/03/17 10:49:25;;;;;;;9.38;5.20;;;15.80;1.00;;;;;;4995161;28;20560;-78
2023/03/17 10:51:54;;;;;;;8.00;4.88;;;15.80;1.00;;;;;;4994906;28;20343;-77
2023/03/17 10:54:25;;;;;;;8.20;4.93;;;15.80;1.00;;;;;;4996340;28;20682;-78
2023/03/17 10:57:01;;;;;;;6.75;4.75;;;15.90;1.00;;;;;;4997777;28;20210;-78
2023/03/17 10:59:31;;;;;;;9.48;5.60;;;16.00;1.00;;;;;;4996815;28;20188;-78
2023/03/17 11:02:01;;;;;;;11.70;5.18;;;15.90;1.00;;;;;;4988449;28;20251;-78
2023/03/17 11:04:34;;;;;;;7.47;5.22;;;15.90;1.00;;;;;;4989171;28;20206;-78
2023/03/17 11:07:09;;;;;;;6.80;5.03;;;15.80;1.00;;;;;;4988477;28;20247;-78
2023/03/17 11:09:37;;;;;;;8.82;4.90;;;15.70;1.00;;;;;;4994207;28;20196;-78
2023/03/17 11:12:18;;;;;;;6.70;5.43;;;15.50;1.00;;;;;;4997712;28;20210;-78
2023/03/17 11:14:48;;;;;;;9.60;5.15;;;15.50;1.00;;;;;;4996555;28;20529;-77
2023/03/17 11:17:26;;;;;;;9.27;5.65;;;15.50;1.00;;;;;;4997790;28;20207;-76
2023/03/17 11:20:06;;;;;;;11.10;6.37;;;15.40;1.00;;;;;;4993962;28;20302;-78
2023/03/17 11:22:41;;;;;;;6.93;5.80;;;15.40;1.00;;;;;;4995174;28;20318;-77
2023/03/17 11:25:13;;;;;;;9.32;5.65;;;15.50;1.00;;;;;;4997893;28;20219;-76
2023/03/17 11:27:46;;;;;;;8.65;6.07;;;15.50;1.00;;;;;;5017391;28;20289;-76
2023/03/17 11:30:23;;;;;;;7.80;5.30;;;15.60;1.00;;;;;;5015809;28;20199;-77
2023/03/17 11:32:57;;;;;;;6.80;5.25;;;15.50;1.00;;;;;;5014468;28;20226;-78
2023/03/17 11:35:50;;;;;;;7.78;4.88;;;15.60;1.00;;;;;;5000353;28;20208;-77
2023/03/17 11:38:26;;;;;;;8.07;5.80;;;15.50;1.00;;;;;;4990968;28;20311;-78
2023/03/17 11:41:16;;;;;;;8.60;6.13;;;15.50;1.00;;;;;;4975694;28;20224;-78
2023/03/17 11:43:58;;;;;;;7.25;5.32;;;15.50;1.00;;;;;;4962882;28;20233;-77
2023/03/17 11:46:28;;;;;;;7.72;5.60;;;15.40;1.00;;;;;;4976765;28;20201;-77
2023/03/17 11:49:03;;;;;;;7.80;5.90;;;15.50;1.50;;;;;;4995016;28;20208;-78
2023/03/17 11:51:37;;;;;;;12.13;7.20;;;15.60;7.30;;;;;;4994182;28;20191;-79
2023/03/17 11:54:10;;;;;;;9.07;6.15;;;15.70;1.00;;;;;;4997009;28;20195;-78
2023/03/17 11:56:41;;;;;;;9.98;5.85;;;15.70;1.00;;;;;;4994706;28;20335;-78
2023/03/17 11:59:17;;;;;;;8.30;6.75;;;15.80;4.80;;;;;;4994485;28;20200;-78
2023/03/17 12:01:54;;;;;;;12.90;6.10;;;15.70;2.90;;;;;;4993985;28;20588;-78
2023/03/17 12:04:29;;;;;;;10.55;5.93;;;15.60;1.00;;;;;;4974368;28;20185;-78
2023/03/17 12:07:05;;;;;;;9.40;5.72;;;15.60;2.50;;;;;;4975027;28;20608;-78
2023/03/17 12:09:36;;;;;;;7.65;5.40;;;15.60;8.20;;;;;;4975910;28;20287;-78
2023/03/17 12:12:05;;;;;;;12.30;6.43;;;15.70;17.70;;;;;;4974531;28;20203;-78
2023/03/17 12:14:36;;;;;;;10.95;6.72;;;15.80;14.70;;;;;;4974937;28;20234;-79
2023/03/17 12:17:11;;;;;;;13.25;7.50;;;16.00;14.00;;;;;;4975838;28;20197;-78
2023/03/17 12:19:42;;;;;;;8.38;6.20;;;16.20;6.10;;;;;;4974397;28;20255;-77
2023/03/17 12:22:21;;;;;;;15.85;7.18;;;16.30;3.60;;;;;;4974983;28;20547;-77
2023/03/17 12:24:54;;;;;;;8.63;5.78;;;16.50;1.00;;;;;;4974390;28;20324;-77
2023/03/17 12:27:26;;;;;;;10.25;6.88;;;16.60;1.00;;;;;;4974683;28;20196;-77
2023/03/17 12:29:58;;;;;;;12.95;6.47;;;16.70;1.00;;;;;;4974757;28;20201;-78
2023/03/17 12:32:29;;;;;;;10.25;6.00;;;16.80;1.00;;;;;;4979161;28;20304;-78
2023/03/17 12:34:57;;;;;;;12.32;6.82;;;16.90;1.00;;;;;;4994225;28;20298;-79
2023/03/17 12:37:28;;;;;;;11.40;6.70;;;17.00;1.00;;;;;;4993619;28;20218;-78
2023/03/17 12:40:00;;;;;;;14.55;7.10;;;17.20;1.00;;;;;;4992818;28;20208;-78
2023/03/17 12:42:37;;;;;;;14.65;8.05;;;17.40;1.00;;;;;;4992993;28;20216;-78
2023/03/17 12:45:36;;;;;;;11.75;7.72;;;17.40;1.00;;;;;;4988833;28;20211;-78
2023/03/17 12:48:19;;;;;;;12.05;7.07;;;17.50;1.00;;;;;;4963486;28;20849;-77
2023/03/17 12:51:06;;;;;;;13.27;8.57;;;17.50;99.90;;;;;;4974089;28;20252;-79
2023/03/17 12:53:37;;;;;;;20.20;9.40;;;17.40;1.00;;;;;;4991559;28;20601;-78
2023/03/17 12:56:14;;;;;;;18.70;10.00;;;17.50;1.00;;;;;;4993180;28;20290;-78
2023/03/17 12:58:45;;;;;;;16.95;8.77;;;17.40;99.90;;;;;;4993692;28;20658;-78
2023/03/17 13:01:23;;;;;;;18.98;8.65;;;17.40;99.90;;;;;;4992852;28;20199;-78
2023/03/17 13:04:02;;;;;;;13.45;7.50;;;17.30;99.90;;;;;;5013524;28;20317;-78
2023/03/17 13:06:39;;;;;;;11.07;5.75;;;17.20;1.00;;;;;;5013319;28;20619;-78